createdAt,value
2022-08-31T00:00:21.008Z,86.55
2022-08-31T00:02:11.760Z,86.65
2022-08-31T00:04:03.681Z,86.70
2022-08-31T00:05:35.982Z,86.64
2022-08-31T00:07:08.826Z,86.45
2022-08-31T00:08:40.979Z,86.68
2022-08-31T00:10:20.059Z,86.47
2022-08-31T00:12:04.519Z,86.40
2022-08-31T00:13:37.089Z,86.53
2022-08-31T00:15:11.377Z,86.51
2022-08-31T00:16:44.935Z,86.72
2022-08-31T00:18:18.224Z,86.48
2022-08-31T00:19:50.124Z,86.34
2022-08-31T00:21:26.455Z,86.48
2022-08-31T00:22:58.439Z,86.33
2022-08-31T00:24:31.296Z,86.31
2022-08-31T00:26:03.451Z,86.02
2022-08-31T00:27:35.509Z,86.15
2022-08-31T00:29:07.844Z,86.10
2022-08-31T00:30:40.452Z,86.15
2022-08-31T00:32:12.484Z,86.33
2022-08-31T00:33:44.744Z,86.36
2022-08-31T00:35:16.820Z,86.06
2022-08-31T00:36:49.152Z,86.12
2022-08-31T00:38:21.234Z,85.86
2022-08-31T00:39:54.164Z,86.11
2022-08-31T00:41:30.105Z,86.10
2022-08-31T00:43:02.705Z,86.02
2022-08-31T00:44:37.543Z,85.93
2022-08-31T00:46:11.075Z,86.14
2022-08-31T00:47:43.323Z,86.34
2022-08-31T00:49:27.515Z,86.41
2022-08-31T00:50:59.640Z,86.55
2022-08-31T00:52:37.972Z,86.33
2022-08-31T00:54:12.473Z,86.62
2022-08-31T00:55:44.479Z,86.23
2022-08-31T00:57:16.846Z,86.33
2022-08-31T00:58:54.762Z,85.95
2022-08-31T01:00:28.531Z,86.01
2022-08-31T01:02:02.054Z,86.24
2022-08-31T01:03:34.270Z,86.37
2022-08-31T01:05:07.869Z,86.35
2022-08-31T01:06:40.439Z,86.00
2022-08-31T01:08:12.483Z,86.10
2022-08-31T01:09:52.690Z,85.94
2022-08-31T01:11:28.659Z,85.73
2022-08-31T01:13:01.673Z,85.98
2022-08-31T01:14:34.448Z,85.75
2022-08-31T01:16:11.398Z,86.15
2022-08-31T01:17:44.789Z,86.27
2022-08-31T01:19:31.994Z,86.26
2022-08-31T01:21:22.809Z,86.36
2022-08-31T01:23:08.707Z,86.29
2022-08-31T01:24:43.066Z,86.23
2022-08-31T01:26:19.863Z,86.04
2022-08-31T01:27:52.145Z,85.93
2022-08-31T01:29:24.226Z,86.01
2022-08-31T01:31:27.992Z,85.73
2022-08-31T01:33:00.161Z,85.90
2022-08-31T01:34:33.145Z,86.10
2022-08-31T01:36:06.095Z,86.04
2022-08-31T01:37:38.281Z,86.39
2022-08-31T01:39:11.282Z,86.09
2022-08-31T01:40:51.216Z,86.46
2022-08-31T01:42:23.368Z,86.54
2022-08-31T01:44:05.545Z,86.16
2022-08-31T03:28:15.127Z,86.07
2022-08-31T03:29:47.210Z,86.10
2022-08-31T03:31:19.390Z,86.41
2022-08-31T03:32:51.762Z,86.84
2022-08-31T03:34:27.090Z,86.89
2022-08-31T03:35:59.559Z,87.00
2022-08-31T03:37:32.668Z,86.62
2022-08-31T03:39:05.094Z,86.45
2022-08-31T03:40:37.529Z,86.77
2022-08-31T03:42:09.775Z,86.68
2022-08-31T03:43:41.949Z,86.65
2022-08-31T03:45:14.994Z,86.55
2022-08-31T03:46:48.371Z,86.45
2022-08-31T03:48:20.499Z,86.00
2022-08-31T03:49:52.707Z,86.21
2022-08-31T03:51:24.889Z,86.03
2022-08-31T03:52:56.970Z,86.05
2022-08-31T03:54:29.107Z,86.23
2022-08-31T03:56:03.890Z,86.53
2022-08-31T03:57:36.398Z,86.70
2022-08-31T03:59:08.519Z,86.52
2022-08-31T04:00:43.407Z,86.23
2022-08-31T04:02:15.478Z,85.67
2022-08-31T04:03:47.614Z,86.06
2022-08-31T04:05:21.588Z,85.88
2022-08-31T04:06:53.637Z,85.81
2022-08-31T04:08:26.204Z,85.92
2022-08-31T04:09:58.300Z,85.84
2022-08-31T04:11:44.828Z,85.98
2022-08-31T04:13:20.595Z,86.14
2022-08-31T04:14:52.759Z,86.39
2022-08-31T04:16:26.380Z,86.70
2022-08-31T04:17:58.493Z,86.28
2022-08-31T04:19:31.642Z,86.36
2022-08-31T04:21:04.133Z,86.50
2022-08-31T04:22:36.219Z,86.68
2022-08-31T04:24:08.289Z,86.48
2022-08-31T04:25:41.605Z,86.52
2022-08-31T04:27:13.541Z,86.62
2022-08-31T04:28:46.354Z,86.80
2022-08-31T04:30:18.770Z,87.25
2022-08-31T04:31:54.274Z,87.23
2022-08-31T04:33:26.424Z,87.04
2022-08-31T04:34:58.630Z,87.33
2022-08-31T04:36:31.051Z,87.21
2022-08-31T04:38:03.170Z,87.38
2022-08-31T04:39:51.075Z,87.30
2022-08-31T04:41:25.620Z,87.67
2022-08-31T04:42:58.293Z,87.78
2022-08-31T04:44:30.429Z,88.10
2022-08-31T04:46:03.894Z,88.15
2022-08-31T04:47:36.192Z,88.34
2022-08-31T04:49:11.057Z,88.29
2022-08-31T04:50:43.386Z,88.46
2022-08-31T04:52:15.577Z,88.53
2022-08-31T04:53:48.344Z,88.45
2022-08-31T04:55:20.589Z,88.67
2022-08-31T04:56:52.790Z,88.46
2022-08-31T04:58:25.579Z,88.73
2022-08-31T04:59:57.950Z,89.15
2022-08-31T05:01:42.494Z,89.08
2022-08-31T05:03:15.252Z,89.30
2022-08-31T05:04:47.417Z,89.47
2022-08-31T05:06:27.816Z,89.58
2022-08-31T05:07:59.957Z,89.50
2022-08-31T05:09:32.602Z,89.20
2022-08-31T05:11:14.825Z,89.58
2022-08-31T05:12:46.872Z,89.49
2022-08-31T05:14:19.482Z,89.46
2022-08-31T05:15:55.002Z,89.60
2022-08-31T05:17:27.388Z,89.41
2022-08-31T05:19:00.181Z,89.14
2022-08-31T05:20:32.258Z,89.30
2022-08-31T05:22:04.419Z,89.22
2022-08-31T05:23:36.563Z,89.18
2022-08-31T05:25:09.884Z,89.12
2022-08-31T05:26:45.697Z,89.02
2022-08-31T05:28:23.839Z,89.15
2022-08-31T05:29:56.241Z,89.07
2022-08-31T05:31:31.699Z,88.87
2022-08-31T05:34:44.035Z,88.64
2022-08-31T05:36:16.570Z,88.31
2022-08-31T05:37:50.858Z,88.40
2022-08-31T05:39:23.556Z,88.46
2022-08-31T05:40:58.978Z,87.75
2022-08-31T05:42:31.447Z,87.67
2022-08-31T05:44:05.660Z,87.83
2022-08-31T05:45:43.113Z,87.49
2022-08-31T05:47:15.300Z,87.42
2022-08-31T05:48:49.119Z,87.54
2022-08-31T05:50:21.919Z,87.42
2022-08-31T05:51:54.353Z,87.12
2022-08-31T05:53:27.617Z,86.77
2022-08-31T05:54:59.626Z,86.46
2022-08-31T05:56:35.016Z,85.84
2022-08-31T05:58:07.372Z,85.50
2022-08-31T05:59:40.214Z,85.10
2022-08-31T06:01:19.383Z,84.51
2022-08-31T06:02:53.877Z,84.22
2022-08-31T06:04:26.702Z,84.08
2022-08-31T06:05:58.731Z,83.91
2022-08-31T06:07:30.742Z,83.59
2022-08-31T06:09:03.078Z,83.70
2022-08-31T06:10:35.288Z,84.10
2022-08-31T06:12:07.811Z,83.65
2022-08-31T06:13:40.508Z,82.97
2022-08-31T06:15:12.983Z,83.54
2022-08-31T06:16:45.452Z,83.93
2022-08-31T06:18:17.551Z,83.47
2022-08-31T06:19:50.452Z,83.55
2022-08-31T06:21:28.092Z,83.18
2022-08-31T06:23:00.375Z,83.64
2022-08-31T06:24:32.525Z,83.46
2022-08-31T06:26:06.586Z,82.92
2022-08-31T06:27:39.058Z,82.96
2022-08-31T06:29:12.057Z,83.37
2022-08-31T06:30:54.735Z,82.21
2022-08-31T06:32:27.669Z,82.31
2022-08-31T06:34:00.671Z,81.91
2022-08-31T06:35:33.130Z,81.53
2022-08-31T06:37:05.889Z,81.72
2022-08-31T06:38:38.071Z,81.75
2022-08-31T06:40:10.801Z,81.46
2022-08-31T06:41:43.476Z,81.86
2022-08-31T06:43:15.969Z,81.81
2022-08-31T06:44:50.045Z,81.48
2022-08-31T06:46:24.206Z,80.92
2022-08-31T06:47:58.594Z,79.75
2022-08-31T06:49:30.641Z,79.63
2022-08-31T06:51:02.997Z,79.77
2022-08-31T06:52:38.827Z,78.81
2022-08-31T06:54:29.071Z,79.03
2022-08-31T06:56:20.195Z,79.33
2022-08-31T06:57:53.546Z,79.05
2022-08-31T06:59:28.818Z,78.75
2022-08-31T07:01:09.573Z,78.34
2022-08-31T07:02:41.826Z,78.46
2022-08-31T07:04:14.611Z,78.12
2022-08-31T07:05:46.906Z,78.02
2022-08-31T07:08:58.394Z,76.90
2022-08-31T07:10:30.469Z,77.13
2022-08-31T07:12:03.145Z,76.75
2022-08-31T07:13:35.433Z,75.30
2022-08-31T07:15:08.218Z,75.04
2022-08-31T07:16:41.355Z,75.82
2022-08-31T07:18:13.638Z,75.42
2022-08-31T07:19:45.678Z,75.30
2022-08-31T07:21:23.257Z,74.46
2022-08-31T07:22:55.404Z,73.86
2022-08-31T07:24:30.870Z,74.46
2022-08-31T07:26:08.051Z,74.60
2022-08-31T07:29:19.422Z,74.16
2022-08-31T07:30:52.129Z,73.17
2022-08-31T07:32:24.625Z,73.26
2022-08-31T07:33:57.932Z,72.61
2022-08-31T07:35:34.255Z,72.55
2022-08-31T07:37:25.745Z,72.73
2022-08-31T07:39:16.877Z,72.54
2022-08-31T07:41:08.193Z,73.47
2022-08-31T07:44:15.018Z,71.75
2022-08-31T07:45:48.198Z,71.47
2022-08-31T07:47:22.644Z,71.22
2022-08-31T07:48:55.044Z,70.12
2022-08-31T07:50:27.975Z,69.57
2022-08-31T07:52:00.795Z,69.83
2022-08-31T07:53:40.293Z,68.88
2022-08-31T07:55:16.122Z,69.25
2022-08-31T07:56:52.762Z,69.41
2022-08-31T07:58:28.403Z,69.19
2022-08-31T08:00:07.396Z,66.54
2022-08-31T08:01:41.673Z,66.37
2022-08-31T08:03:14.070Z,67.97
2022-08-31T08:04:47.057Z,68.04
2022-08-31T08:06:20.052Z,67.30
2022-08-31T08:07:55.391Z,67.50
2022-08-31T08:09:30.282Z,67.16
2022-08-31T08:11:04.973Z,67.38
2022-08-31T08:12:37.463Z,66.89
2022-08-31T08:14:09.933Z,65.79
2022-08-31T08:15:42.324Z,64.98
2022-08-31T08:18:48.346Z,65.67
2022-08-31T08:20:34.304Z,65.82
2022-08-31T08:22:10.668Z,65.44
2022-08-31T08:23:42.866Z,67.29
2022-08-31T08:25:16.614Z,67.33
2022-08-31T08:26:54.119Z,67.62
2022-08-31T08:28:46.185Z,68.11
2022-08-31T08:30:19.356Z,68.86
2022-08-31T08:31:56.274Z,70.05
2022-08-31T08:33:30.327Z,67.94
2022-08-31T08:35:02.706Z,68.25
2022-08-31T08:36:37.383Z,67.68
2022-08-31T08:38:09.954Z,68.89
2022-08-31T08:39:43.570Z,67.68
2022-08-31T08:41:27.172Z,67.49
2022-08-31T08:43:00.268Z,67.28
2022-08-31T08:44:36.344Z,67.17
2022-08-31T08:46:31.293Z,65.74
2022-08-31T08:47:58.502Z,67.25
2022-08-31T08:49:52.137Z,67.20
2022-08-31T08:51:33.028Z,66.74
2022-08-31T08:53:08.174Z,65.15
2022-08-31T08:54:42.684Z,67.03
2022-08-31T08:56:32.247Z,66.48
2022-08-31T08:58:08.315Z,66.59
2022-08-31T08:59:45.234Z,68.46
2022-08-31T09:01:24.820Z,68.88
2022-08-31T09:03:23.863Z,68.52
2022-08-31T09:05:40.254Z,68.14
2022-08-31T09:07:31.886Z,68.14
2022-08-31T09:09:31.027Z,68.64
2022-08-31T09:11:19.006Z,68.44
2022-08-31T09:12:58.629Z,68.34
2022-08-31T09:15:08.402Z,66.84
2022-08-31T09:17:02.209Z,67.22
2022-08-31T09:18:34.893Z,64.67
2022-08-31T09:20:08.554Z,66.60
2022-08-31T09:21:56.461Z,67.72
2022-08-31T09:23:30.277Z,66.54
2022-08-31T09:25:04.057Z,65.42
2022-08-31T09:27:21.443Z,66.30
2022-08-31T09:28:54.392Z,65.96
2022-08-31T09:30:52.917Z,66.14
2022-08-31T09:32:36.245Z,66.83
2022-08-31T09:34:28.928Z,65.72
2022-08-31T09:36:14.990Z,65.35
2022-08-31T09:38:02.617Z,64.75
2022-08-31T09:39:37.169Z,65.48
2022-08-31T09:41:21.914Z,64.33
2022-08-31T09:43:17.881Z,64.42
2022-08-31T09:44:51.242Z,64.15
2022-08-31T09:46:28.690Z,63.72
2022-08-31T09:48:02.164Z,64.28
2022-08-31T09:49:39.824Z,64.11
2022-08-31T09:51:21.093Z,63.90
2022-08-31T09:53:44.744Z,63.26
2022-08-31T09:55:22.272Z,62.75
2022-08-31T09:56:58.996Z,63.26
2022-08-31T09:58:33.873Z,61.95
2022-08-31T10:00:06.981Z,59.08
2022-08-31T10:01:44.755Z,59.94
2022-08-31T10:03:31.596Z,61.33
2022-08-31T10:05:07.470Z,60.15
2022-08-31T10:06:53.066Z,58.54
2022-08-31T10:08:59.482Z,57.81
2022-08-31T10:10:36.345Z,59.84
2022-08-31T10:12:12.325Z,57.69
2022-08-31T10:14:20.939Z,58.30
2022-08-31T10:16:00.518Z,58.87
2022-08-31T10:17:45.729Z,59.47
2022-08-31T10:19:44.460Z,58.18
2022-08-31T10:21:25.530Z,57.23
2022-08-31T10:23:07.198Z,59.99
2022-08-31T10:24:47.090Z,58.30
2022-08-31T10:26:29.572Z,57.82
2022-08-31T10:28:08.138Z,60.43
2022-08-31T10:29:56.694Z,59.49
2022-08-31T10:31:42.879Z,59.57
2022-08-31T10:33:21.908Z,59.33
2022-08-31T10:35:20.185Z,59.07
2022-08-31T10:36:59.334Z,59.16
2022-08-31T10:38:36.769Z,59.69
2022-08-31T10:40:34.249Z,58.97
2022-08-31T10:42:11.980Z,59.34
2022-08-31T10:44:08.494Z,58.42
2022-08-31T10:45:44.464Z,59.05
2022-08-31T10:47:21.588Z,58.92
2022-08-31T10:49:05.497Z,58.98
2022-08-31T10:50:46.990Z,59.29
2022-08-31T10:52:48.702Z,57.35
2022-08-31T10:54:36.208Z,57.06
2022-08-31T10:56:15.517Z,58.90
2022-08-31T10:58:04.984Z,59.06
2022-08-31T11:00:32.893Z,59.19
2022-08-31T11:02:23.338Z,59.77
2022-08-31T11:04:19.147Z,59.70
2022-08-31T11:05:57.412Z,59.74
2022-08-31T11:07:55.827Z,59.88
2022-08-31T11:10:09.990Z,59.02
2022-08-31T11:12:07.505Z,58.46
2022-08-31T11:13:52.598Z,56.81
2022-08-31T11:15:59.532Z,55.79
2022-08-31T11:17:56.070Z,55.37
2022-08-31T11:19:55.604Z,56.87
2022-08-31T11:21:45.789Z,55.85
2022-08-31T11:23:33.249Z,55.80
2022-08-31T11:25:18.083Z,55.90
2022-08-31T11:27:00.725Z,57.08
2022-08-31T11:28:38.137Z,57.59
2022-08-31T11:30:24.828Z,58.29
2022-08-31T11:32:01.399Z,58.50
2022-08-31T11:33:33.832Z,58.18
2022-08-31T11:35:11.005Z,58.20
2022-08-31T11:37:01.427Z,57.89
2022-08-31T11:38:55.055Z,60.13
2022-08-31T11:40:45.729Z,60.36
2022-08-31T11:42:33.790Z,59.82
2022-08-31T11:44:09.305Z,59.25
2022-08-31T11:45:44.768Z,58.12
2022-08-31T11:47:30.389Z,59.62
2022-08-31T11:49:02.942Z,59.51
2022-08-31T11:50:41.109Z,59.66
2022-08-31T11:52:26.044Z,59.83
2022-08-31T11:53:58.468Z,59.62
2022-08-31T11:55:31.735Z,59.82
2022-08-31T11:57:06.720Z,59.43
2022-08-31T11:58:40.678Z,59.68
2022-08-31T12:00:21.289Z,58.47
2022-08-31T12:01:58.772Z,58.75
2022-08-31T12:03:46.435Z,57.56
2022-08-31T12:05:58.514Z,58.83
2022-08-31T12:07:30.718Z,57.98
2022-08-31T12:09:12.444Z,58.08
2022-08-31T12:11:05.550Z,57.75
2022-08-31T12:12:52.772Z,57.15
2022-08-31T12:14:51.723Z,57.00
2022-08-31T12:16:30.573Z,57.02
2022-08-31T12:18:18.469Z,56.70
2022-08-31T12:20:08.910Z,56.40
2022-08-31T12:22:15.302Z,56.16
2022-08-31T12:23:56.351Z,56.11
2022-08-31T12:26:04.544Z,56.84
2022-08-31T12:27:58.416Z,56.64
2022-08-31T12:29:36.705Z,55.88
2022-08-31T12:31:14.267Z,55.30
2022-08-31T12:32:47.456Z,55.20
2022-08-31T12:34:20.405Z,53.59
2022-08-31T12:36:14.825Z,53.89
2022-08-31T12:37:58.861Z,55.59
2022-08-31T12:39:32.591Z,55.68
2022-08-31T12:41:05.987Z,55.82
2022-08-31T12:43:06.356Z,55.06
2022-08-31T12:44:43.549Z,55.16
2022-08-31T12:46:54.591Z,55.37
2022-08-31T12:49:16.549Z,55.00
2022-08-31T12:51:15.681Z,55.15
2022-08-31T12:53:08.765Z,55.06
2022-08-31T12:55:09.026Z,54.92
2022-08-31T12:56:44.567Z,55.47
2022-08-31T12:58:48.320Z,56.28
2022-08-31T13:00:21.862Z,56.51
2022-08-31T13:01:55.048Z,56.90
2022-08-31T13:05:01.074Z,57.67
2022-08-31T13:06:36.405Z,58.26
2022-08-31T13:08:25.670Z,57.91
2022-08-31T13:10:16.752Z,58.38
2022-08-31T13:11:52.523Z,59.07
2022-08-31T13:13:28.086Z,58.82
2022-08-31T13:15:00.294Z,57.28
2022-08-31T13:16:32.913Z,57.48
2022-08-31T13:18:24.053Z,57.29
2022-08-31T13:19:58.712Z,56.55
2022-08-31T13:21:33.095Z,56.69
2022-08-31T13:23:09.790Z,57.34
2022-08-31T13:24:51.368Z,57.40
2022-08-31T13:26:26.698Z,56.20
2022-08-31T13:27:59.069Z,57.09
2022-08-31T13:29:31.747Z,57.54
2022-08-31T13:31:08.340Z,57.32
2022-08-31T13:32:45.419Z,58.47
2022-08-31T13:34:19.595Z,59.65
2022-08-31T13:35:56.989Z,59.63
2022-08-31T13:37:36.969Z,60.08
2022-08-31T13:39:15.793Z,60.45
2022-08-31T13:40:51.751Z,60.51
2022-08-31T13:42:29.758Z,60.23
2022-08-31T13:44:06.358Z,60.74
2022-08-31T13:45:58.760Z,59.90
2022-08-31T13:47:47.540Z,59.70
2022-08-31T13:49:37.917Z,59.88
2022-08-31T13:51:17.924Z,60.16
2022-08-31T13:55:08.189Z,60.15
2022-08-31T13:56:57.986Z,60.74
2022-08-31T13:58:32.679Z,61.02
2022-08-31T14:00:25.880Z,61.86
2022-08-31T14:02:06.111Z,61.42
2022-08-31T14:03:51.966Z,61.66
2022-08-31T14:05:33.086Z,61.99
2022-08-31T14:07:08.170Z,62.14
2022-08-31T14:08:40.612Z,62.05
2022-08-31T14:10:23.276Z,62.95
2022-08-31T14:12:03.585Z,62.84
2022-08-31T14:13:37.689Z,63.11
2022-08-31T14:15:17.976Z,63.12
2022-08-31T14:16:52.528Z,63.52
2022-08-31T14:18:39.641Z,63.26
2022-08-31T14:20:53.420Z,63.71
2022-08-31T14:22:36.504Z,64.03
2022-08-31T14:24:12.747Z,64.02
2022-08-31T14:25:45.299Z,64.19
2022-08-31T14:27:17.854Z,64.54
2022-08-31T14:28:53.741Z,64.10
2022-08-31T14:30:26.236Z,64.32
2022-08-31T14:31:59.208Z,64.18
2022-08-31T14:33:32.397Z,63.98
2022-08-31T14:35:11.740Z,64.01
2022-08-31T14:36:52.745Z,64.23
2022-08-31T14:38:25.910Z,64.50
2022-08-31T14:40:05.576Z,64.79
2022-08-31T14:41:40.403Z,64.79
2022-08-31T14:43:15.500Z,64.63
2022-08-31T14:44:54.040Z,64.62
2022-08-31T14:46:28.597Z,64.81
2022-08-31T14:48:01.097Z,65.15
2022-08-31T14:49:36.251Z,64.99
2022-08-31T14:51:11.228Z,65.06
2022-08-31T14:52:45.834Z,65.33
2022-08-31T14:54:18.327Z,65.96
2022-08-31T14:55:50.636Z,66.74
2022-08-31T14:57:28.467Z,66.39
2022-08-31T14:59:04.928Z,66.46
2022-08-31T15:00:51.103Z,66.24
2022-08-31T15:02:28.435Z,67.33
2022-08-31T15:04:04.486Z,67.34
2022-08-31T15:05:39.703Z,67.39
2022-08-31T15:07:12.053Z,66.90
2022-08-31T15:08:44.526Z,67.08
2022-08-31T15:10:18.004Z,67.49
2022-08-31T15:11:51.451Z,67.25
2022-08-31T15:13:24.168Z,66.92
2022-08-31T15:15:01.028Z,67.68
2022-08-31T15:16:33.545Z,68.33
2022-08-31T15:18:06.967Z,67.71
2022-08-31T15:19:41.182Z,67.38
2022-08-31T15:21:13.582Z,66.88
2022-08-31T15:22:47.676Z,67.38
2022-08-31T15:24:22.191Z,67.94
2022-08-31T15:26:04.436Z,68.37
2022-08-31T15:27:37.802Z,69.54
2022-08-31T15:29:14.320Z,69.41
2022-08-31T15:30:49.024Z,70.06
2022-08-31T15:32:21.391Z,70.08
2022-08-31T15:33:57.562Z,70.15
2022-08-31T15:35:32.335Z,70.66
2022-08-31T15:37:06.907Z,70.82
2022-08-31T15:38:40.655Z,70.64
2022-08-31T15:40:15.575Z,70.78
2022-08-31T15:43:27.848Z,72.10
2022-08-31T15:45:00.657Z,72.12
2022-08-31T15:46:51.618Z,72.55
2022-08-31T15:48:42.457Z,72.43
2022-08-31T15:50:19.639Z,72.62
2022-08-31T15:51:57.470Z,72.48
2022-08-31T15:53:30.985Z,72.74
2022-08-31T15:55:03.826Z,73.06
2022-08-31T15:56:40.295Z,73.49
2022-08-31T15:58:14.131Z,73.37
2022-08-31T15:59:46.701Z,72.49
2022-08-31T16:01:19.329Z,71.75
2022-08-31T16:02:54.254Z,70.73
2022-08-31T16:04:26.716Z,70.48
2022-08-31T16:06:01.507Z,69.96
2022-08-31T16:07:35.407Z,70.06
2022-08-31T16:09:10.145Z,69.57
2022-08-31T16:10:44.936Z,69.45
2022-08-31T16:12:17.450Z,69.18
2022-08-31T16:13:59.858Z,69.54
2022-08-31T16:15:36.331Z,69.40
2022-08-31T16:17:09.909Z,69.63
2022-08-31T16:18:42.325Z,69.30
2022-08-31T16:20:15.077Z,69.14
2022-08-31T16:21:49.314Z,69.33
2022-08-31T16:23:21.743Z,69.58
2022-08-31T16:24:54.313Z,70.07
2022-08-31T16:26:31.695Z,70.35
2022-08-31T16:28:06.626Z,70.12
2022-08-31T16:29:40.166Z,70.43
2022-08-31T16:31:13.011Z,70.63
2022-08-31T16:32:48.127Z,70.79
2022-08-31T16:34:23.573Z,71.28
2022-08-31T16:35:56.087Z,71.58
2022-08-31T16:37:28.556Z,71.44
2022-08-31T16:39:02.376Z,71.71
2022-08-31T16:40:35.827Z,71.66
2022-08-31T16:42:11.587Z,71.51
2022-08-31T16:43:54.649Z,71.49
2022-08-31T16:45:40.134Z,71.32
2022-08-31T16:47:13.037Z,71.34
2022-08-31T16:49:03.871Z,71.85
2022-08-31T16:50:36.242Z,71.51
2022-08-31T16:52:22.136Z,71.71
2022-08-31T16:53:56.884Z,71.45
2022-08-31T16:55:29.263Z,71.88
2022-08-31T16:57:01.932Z,72.68
2022-08-31T16:58:51.181Z,73.57
2022-08-31T17:00:28.333Z,73.68
2022-08-31T17:02:05.696Z,73.96
2022-08-31T17:03:38.163Z,73.67
2022-08-31T17:05:10.458Z,73.67
2022-08-31T17:06:45.469Z,73.76
2022-08-31T17:08:18.042Z,74.23
2022-08-31T17:09:50.631Z,74.56
2022-08-31T17:11:27.006Z,75.10
2022-08-31T17:12:59.378Z,75.49
2022-08-31T17:14:36.465Z,75.26
2022-08-31T17:16:08.972Z,75.60
2022-08-31T17:17:41.548Z,75.60
2022-08-31T17:19:15.097Z,75.47
2022-08-31T17:20:48.238Z,75.79
2022-08-31T17:22:31.803Z,76.05
2022-08-31T17:24:05.890Z,76.51
2022-08-31T17:25:43.795Z,76.72
2022-08-31T17:27:19.645Z,77.41
2022-08-31T17:29:03.005Z,77.82
2022-08-31T17:30:35.870Z,78.48
2022-08-31T17:32:09.930Z,78.37
2022-08-31T17:33:42.235Z,78.45
2022-08-31T17:35:19.102Z,78.16
2022-08-31T17:36:52.429Z,78.31
2022-08-31T17:38:24.961Z,78.25
2022-08-31T17:39:57.909Z,78.28
2022-08-31T17:41:33.170Z,78.44
2022-08-31T17:43:05.613Z,78.36
2022-08-31T17:44:38.195Z,78.24
2022-08-31T17:46:12.749Z,78.52
2022-08-31T17:47:45.180Z,78.45
2022-08-31T17:49:19.740Z,78.19
2022-08-31T17:50:52.203Z,78.39
2022-08-31T17:52:24.646Z,78.33
2022-08-31T17:54:02.886Z,78.40
2022-08-31T17:55:35.420Z,78.71
2022-08-31T17:57:10.878Z,78.88
2022-08-31T17:58:44.022Z,79.39
2022-08-31T18:00:17.266Z,78.94
2022-08-31T18:01:50.660Z,79.02
2022-08-31T18:03:23.342Z,78.96
2022-08-31T18:04:55.849Z,79.44
2022-08-31T18:06:28.906Z,79.25
2022-08-31T18:08:01.250Z,79.35
2022-08-31T18:09:35.728Z,79.67
2022-08-31T18:11:08.236Z,79.44
2022-08-31T18:12:42.569Z,80.15
2022-08-31T18:14:19.049Z,80.06
2022-08-31T18:15:51.562Z,80.42
2022-08-31T18:17:24.087Z,80.58
2022-08-31T18:18:56.510Z,80.66
2022-08-31T18:20:28.884Z,80.45
2022-08-31T18:22:01.624Z,80.82
2022-08-31T18:23:34.054Z,80.72
2022-08-31T18:25:06.908Z,81.15
2022-08-31T18:26:44.845Z,80.88
2022-08-31T18:28:18.462Z,80.98
2022-08-31T18:29:51.113Z,81.47
2022-08-31T18:31:31.038Z,81.78
2022-08-31T18:33:04.115Z,81.50
2022-08-31T18:34:40.513Z,81.77
2022-08-31T18:36:13.242Z,81.44
2022-08-31T18:37:45.608Z,81.56
2022-08-31T18:39:40.738Z,81.25
2022-08-31T18:41:33.488Z,81.65
2022-08-31T18:43:24.091Z,81.36
2022-08-31T18:48:34.437Z,80.20
2022-08-31T18:50:07.294Z,80.70
2022-08-31T18:51:47.107Z,80.76
2022-08-31T18:53:27.906Z,80.98
2022-08-31T18:55:02.109Z,80.83
2022-08-31T18:56:34.579Z,80.74
2022-08-31T18:58:07.607Z,81.11
2022-08-31T18:59:40.514Z,81.58
2022-08-31T19:01:16.098Z,81.50
2022-08-31T19:02:53.328Z,81.84
2022-08-31T19:04:25.816Z,82.09
2022-08-31T19:05:58.302Z,82.25
2022-08-31T19:07:30.718Z,82.42
2022-08-31T19:09:04.088Z,82.70
2022-08-31T19:10:36.523Z,82.26
2022-08-31T19:12:09.062Z,82.16
2022-08-31T19:13:41.581Z,82.10
2022-08-31T19:15:14.085Z,82.24
2022-08-31T19:16:47.407Z,82.48
2022-08-31T19:18:24.403Z,82.87
2022-08-31T19:19:57.121Z,83.01
2022-08-31T19:21:32.900Z,82.53
2022-08-31T19:23:05.701Z,82.11
2022-08-31T19:24:39.695Z,82.07
2022-08-31T19:26:24.574Z,82.47
2022-08-31T19:27:57.247Z,82.24
2022-08-31T19:29:31.655Z,82.34
2022-08-31T19:31:06.978Z,82.37
2022-08-31T19:32:39.336Z,82.71
2022-08-31T19:34:14.174Z,82.65
2022-08-31T19:35:46.699Z,82.56
2022-08-31T19:37:21.813Z,82.83
2022-08-31T19:38:54.328Z,82.71
2022-08-31T19:40:37.536Z,82.66
2022-08-31T19:42:10.131Z,82.78
2022-08-31T19:43:52.213Z,82.90
2022-08-31T19:45:40.839Z,82.87
2022-08-31T19:47:30.218Z,83.51
2022-08-31T19:49:04.007Z,83.75
2022-08-31T19:50:43.526Z,83.21
2022-08-31T19:52:16.042Z,83.05
2022-08-31T19:53:50.329Z,83.01
2022-08-31T19:55:22.780Z,83.29
2022-08-31T19:56:55.148Z,83.36
2022-08-31T19:58:27.633Z,83.39
2022-08-31T20:00:00.124Z,83.28
2022-08-31T20:01:35.977Z,83.47
2022-08-31T20:03:08.576Z,83.76
2022-08-31T20:04:45.854Z,83.73
2022-08-31T20:06:20.293Z,83.43
2022-08-31T20:07:52.682Z,82.88
2022-08-31T20:09:29.687Z,82.81
2022-08-31T20:11:02.719Z,82.51
2022-08-31T20:12:35.129Z,82.58
2022-08-31T20:14:07.864Z,82.63
2022-08-31T20:15:44.864Z,82.80
2022-08-31T20:17:17.706Z,82.68
2022-08-31T20:18:52.041Z,82.88
2022-08-31T20:20:27.541Z,82.67
2022-08-31T20:22:07.096Z,82.66
2022-08-31T20:23:39.569Z,82.50
2022-08-31T20:25:17.969Z,83.07
2022-08-31T20:26:52.757Z,83.15
2022-08-31T20:28:28.517Z,83.35
2022-08-31T20:30:03.252Z,83.70
2022-08-31T20:31:40.326Z,83.26
2022-08-31T20:33:13.100Z,83.57
2022-08-31T20:34:45.481Z,83.29
2022-08-31T20:36:20.067Z,83.25
2022-08-31T20:37:52.713Z,83.12
2022-08-31T20:39:26.913Z,83.11
2022-08-31T20:41:03.916Z,83.21
2022-08-31T20:42:36.385Z,83.59
2022-08-31T20:44:11.745Z,83.78
2022-08-31T20:45:44.043Z,84.02
2022-08-31T20:47:35.019Z,83.85
2022-08-31T20:49:26.548Z,83.90
2022-08-31T20:51:01.457Z,83.54
2022-08-31T20:52:35.558Z,83.60
2022-08-31T20:54:11.040Z,83.29
2022-08-31T20:55:43.665Z,83.32
2022-08-31T20:57:18.725Z,83.57
2022-08-31T20:58:51.822Z,83.73
2022-08-31T21:00:25.217Z,83.55
2022-08-31T21:02:00.164Z,83.56
2022-08-31T21:03:32.653Z,83.57
2022-08-31T21:06:59.422Z,83.97
2022-08-31T21:08:34.767Z,83.69
2022-08-31T21:10:09.936Z,83.89
2022-08-31T21:11:44.073Z,84.10
2022-08-31T21:13:17.231Z,83.96
2022-08-31T21:14:49.472Z,84.46
2022-08-31T21:16:22.214Z,84.49
2022-08-31T21:17:59.796Z,84.42
2022-08-31T21:21:07.145Z,84.43
2022-08-31T21:22:39.592Z,84.46
2022-08-31T21:24:14.393Z,84.04
2022-08-31T21:25:47.265Z,84.37
2022-08-31T21:27:19.532Z,84.13
2022-08-31T21:28:53.031Z,84.18
2022-08-31T21:30:25.585Z,84.28
2022-08-31T21:32:03.398Z,84.19
2022-08-31T21:33:36.258Z,84.14
2022-08-31T21:35:10.725Z,84.46
2022-08-31T21:36:46.329Z,84.39
2022-08-31T21:38:18.560Z,84.68
2022-08-31T21:39:54.519Z,84.57
2022-08-31T21:41:29.806Z,84.29
2022-08-31T21:43:02.457Z,84.10
2022-08-31T21:44:34.644Z,84.56
2022-08-31T21:46:33.580Z,84.16
2022-08-31T21:48:05.806Z,84.67
2022-08-31T21:49:37.990Z,85.14
2022-08-31T21:51:12.711Z,85.25
2022-08-31T21:52:44.772Z,85.43
2022-08-31T21:54:19.546Z,85.18
2022-08-31T21:55:52.566Z,84.97
2022-08-31T21:57:26.095Z,84.82
2022-08-31T21:58:59.044Z,84.62
2022-08-31T22:00:32.829Z,85.10
2022-08-31T22:02:09.692Z,85.21
2022-08-31T22:03:42.122Z,85.23
2022-08-31T22:05:14.336Z,85.20
2022-08-31T22:06:49.885Z,85.48
2022-08-31T22:08:26.423Z,85.57
2022-08-31T22:09:58.718Z,85.18
2022-08-31T22:11:33.305Z,84.92
2022-08-31T22:13:06.142Z,84.79
2022-08-31T22:14:39.513Z,84.94
2022-08-31T22:16:17.436Z,84.55
2022-08-31T22:18:25.887Z,84.52
2022-08-31T22:19:45.235Z,84.26
2022-08-31T22:21:24.367Z,84.19
2022-08-31T22:22:57.189Z,84.60
2022-08-31T22:24:32.893Z,84.59
2022-08-31T22:26:05.064Z,84.36
2022-08-31T22:27:37.212Z,84.66
2022-08-31T22:29:12.081Z,84.71
2022-08-31T22:30:44.286Z,84.97
2022-08-31T22:32:16.545Z,84.98
2022-08-31T22:33:52.487Z,85.06
2022-08-31T22:35:27.475Z,84.88
2022-08-31T22:36:59.616Z,84.63
2022-08-31T22:38:32.068Z,84.53
2022-08-31T22:40:04.972Z,84.84
2022-08-31T22:41:38.272Z,85.14
2022-08-31T22:43:10.169Z,85.24
2022-08-31T22:44:44.026Z,85.12
2022-08-31T22:46:22.043Z,85.05
2022-08-31T22:47:54.280Z,84.59
2022-08-31T22:49:27.418Z,84.78
2022-08-31T22:51:04.761Z,84.69
2022-08-31T22:52:37.155Z,84.66
2022-08-31T22:54:10.302Z,84.89
2022-08-31T22:55:43.377Z,85.04
2022-08-31T22:57:15.393Z,85.23